sensor_id;sensor_type;location;lat;lon;timestamp;pressure;altitude;pressure_sealevel;temperature;humidity
46710;BME280;32442;51.514;-0.178;2022-12-13T00:00:03;100683.50;;;21.99;34.52
46710;BME280;32442;51.514;-0.178;2022-12-13T00:02:30;100687.97;;;22.00;34.60
46710;BME280;32442;51.514;-0.178;2022-12-13T00:04:57;100689.94;;;21.99;34.72
46710;BME280;32442;51.514;-0.178;2022-12-13T00:07:24;100692.78;;;21.99;35.08
46710;BME280;32442;51.514;-0.178;2022-12-13T00:09:51;100698.75;;;21.98;35.12
46710;BME280;32442;51.514;-0.178;2022-12-13T00:12:18;100703.53;;;21.97;34.84
46710;BME280;32442;51.514;-0.178;2022-12-13T00:14:45;100700.19;;;21.95;34.56
46710;BME280;32442;51.514;-0.178;2022-12-13T00:17:12;100699.72;;;21.93;34.73
46710;BME280;32442;51.514;-0.178;2022-12-13T00:19:39;100702.81;;;21.92;34.36
46710;BME280;32442;51.514;-0.178;2022-12-13T00:22:06;100693.84;;;21.90;34.43
46710;BME280;32442;51.514;-0.178;2022-12-13T00:24:34;100697.84;;;21.89;34.29
46710;BME280;32442;51.514;-0.178;2022-12-13T00:27:08;100697.31;;;21.87;34.53
46710;BME280;32442;51.514;-0.178;2022-12-13T00:29:35;100692.84;;;21.86;34.50
46710;BME280;32442;51.514;-0.178;2022-12-13T00:32:02;100695.16;;;21.84;34.12
46710;BME280;32442;51.514;-0.178;2022-12-13T00:34:29;100697.47;;;21.82;34.47
46710;BME280;32442;51.514;-0.178;2022-12-13T00:36:56;100705.41;;;21.80;34.48
46710;BME280;32442;51.514;-0.178;2022-12-13T00:39:25;100694.78;;;21.77;34.26
46710;BME280;32442;51.514;-0.178;2022-12-13T00:41:52;100692.63;;;21.73;34.28
46710;BME280;32442;51.514;-0.178;2022-12-13T00:44:19;100696.09;;;21.70;34.50
46710;BME280;32442;51.514;-0.178;2022-12-13T00:46:46;100693.91;;;21.67;34.07
46710;BME280;32442;51.514;-0.178;2022-12-13T00:49:12;100693.72;;;21.64;34.10
46710;BME280;32442;51.514;-0.178;2022-12-13T00:51:39;100683.13;;;21.61;34.07
46710;BME280;32442;51.514;-0.178;2022-12-13T00:54:07;100681.28;;;21.56;34.10
46710;BME280;32442;51.514;-0.178;2022-12-13T00:56:34;100681.91;;;21.53;34.51
46710;BME280;32442;51.514;-0.178;2022-12-13T00:59:02;100674.13;;;21.50;34.15
46710;BME280;32442;51.514;-0.178;2022-12-13T01:01:30;100673.63;;;21.48;34.26
46710;BME280;32442;51.514;-0.178;2022-12-13T01:03:59;100671.44;;;21.45;34.72
46710;BME280;32442;51.514;-0.178;2022-12-13T01:06:27;100668.16;;;21.43;34.77
46710;BME280;32442;51.514;-0.178;2022-12-13T01:08:55;100657.53;;;21.40;35.10
46710;BME280;32442;51.514;-0.178;2022-12-13T01:11:22;100653.72;;;21.36;34.93
46710;BME280;32442;51.514;-0.178;2022-12-13T01:13:49;100651.53;;;21.33;35.11
46710;BME280;32442;51.514;-0.178;2022-12-13T01:16:16;100644.91;;;21.29;34.94
46710;BME280;32442;51.514;-0.178;2022-12-13T01:18:44;100646.38;;;21.26;35.27
46710;BME280;32442;51.514;-0.178;2022-12-13T01:21:13;100650.97;;;21.22;35.14
46710;BME280;32442;51.514;-0.178;2022-12-13T01:23:41;100646.31;;;21.18;35.12
46710;BME280;32442;51.514;-0.178;2022-12-13T01:26:09;100650.59;;;21.15;35.42
46710;BME280;32442;51.514;-0.178;2022-12-13T01:28:37;100651.19;;;21.12;35.00
46710;BME280;32442;51.514;-0.178;2022-12-13T01:31:05;100651.00;;;21.09;35.54
46710;BME280;32442;51.514;-0.178;2022-12-13T01:33:33;100645.22;;;21.05;35.37
46710;BME280;32442;51.514;-0.178;2022-12-13T01:36:00;100643.03;;;21.02;35.35
46710;BME280;32442;51.514;-0.178;2022-12-13T01:38:28;100643.16;;;20.97;35.38
46710;BME280;32442;51.514;-0.178;2022-12-13T01:40:55;100636.19;;;20.95;35.09
46710;BME280;32442;51.514;-0.178;2022-12-13T01:45:55;100633.31;;;20.86;35.29
46710;BME280;32442;51.514;-0.178;2022-12-13T01:48:24;100637.09;;;20.81;35.23
46710;BME280;32442;51.514;-0.178;2022-12-13T01:50:52;100639.69;;;20.78;35.51
46710;BME280;32442;51.514;-0.178;2022-12-13T01:53:21;100645.13;;;20.74;35.52
46710;BME280;32442;51.514;-0.178;2022-12-13T01:55:49;100651.38;;;20.71;35.10
46710;BME280;32442;51.514;-0.178;2022-12-13T01:58:19;100639.09;;;20.67;35.53
46710;BME280;32442;51.514;-0.178;2022-12-13T02:00:46;100650.97;;;20.64;35.61
46710;BME280;32442;51.514;-0.178;2022-12-13T02:03:14;100641.84;;;20.59;35.73
46710;BME280;32442;51.514;-0.178;2022-12-13T02:05:50;100653.72;;;20.56;35.63
46710;BME280;32442;51.514;-0.178;2022-12-13T02:08:19;100656.31;;;20.52;35.50
46710;BME280;32442;51.514;-0.178;2022-12-13T02:10:47;100658.41;;;20.47;35.41
46710;BME280;32442;51.514;-0.178;2022-12-13T02:13:14;100655.06;;;20.45;35.67
46710;BME280;32442;51.514;-0.178;2022-12-13T02:18:13;100660.59;;;20.36;35.85
46710;BME280;32442;51.514;-0.178;2022-12-13T02:20:47;100658.75;;;20.31;36.10
46710;BME280;32442;51.514;-0.178;2022-12-13T02:31:02;100661.03;;;20.16;36.17
46710;BME280;32442;51.514;-0.178;2022-12-13T02:43:30;100648.06;;;19.92;36.52
46710;BME280;32442;51.514;-0.178;2022-12-13T02:46:00;100661.03;;;19.88;36.75
46710;BME280;32442;51.514;-0.178;2022-12-13T02:48:29;100651.59;;;19.84;36.65
46710;BME280;32442;51.514;-0.178;2022-12-13T02:50:58;100653.84;;;19.82;36.83
46710;BME280;32442;51.514;-0.178;2022-12-13T02:53:26;100658.44;;;19.78;36.84
46710;BME280;32442;51.514;-0.178;2022-12-13T02:55:53;100648.97;;;19.74;36.80
46710;BME280;32442;51.514;-0.178;2022-12-13T02:58:23;100650.41;;;19.72;36.80
46710;BME280;32442;51.514;-0.178;2022-12-13T03:05:54;100654.56;;;19.61;36.75
46710;BME280;32442;51.514;-0.178;2022-12-13T03:11:02;100666.72;;;19.56;36.85
46710;BME280;32442;51.514;-0.178;2022-12-13T03:16:05;100662.66;;;19.48;36.93
46710;BME280;32442;51.514;-0.178;2022-12-13T03:18:34;100664.91;;;19.46;36.93
46710;BME280;32442;51.514;-0.178;2022-12-13T03:21:03;100663.84;;;19.42;37.36
46710;BME280;32442;51.514;-0.178;2022-12-13T03:23:30;100674.84;;;19.39;36.98
46710;BME280;32442;51.514;-0.178;2022-12-13T03:25:58;100680.22;;;19.35;37.14
46710;BME280;32442;51.514;-0.178;2022-12-13T03:28:27;100678.31;;;19.31;36.96
46710;BME280;32442;51.514;-0.178;2022-12-13T03:30:54;100678.94;;;19.28;37.17
46710;BME280;32442;51.514;-0.178;2022-12-13T03:33:21;100673.97;;;19.25;36.82
46710;BME280;32442;51.514;-0.178;2022-12-13T03:35:48;100674.25;;;19.23;37.12
46710;BME280;32442;51.514;-0.178;2022-12-13T03:38:15;100671.53;;;19.18;37.10
46710;BME280;32442;51.514;-0.178;2022-12-13T03:40:48;100668.53;;;19.15;37.11
46710;BME280;32442;51.514;-0.178;2022-12-13T03:43:16;100670.78;;;19.13;37.25
46710;BME280;32442;51.514;-0.178;2022-12-13T03:45:48;100668.63;;;19.09;37.28
46710;BME280;32442;51.514;-0.178;2022-12-13T03:48:15;100662.50;;;19.07;37.70
46710;BME280;32442;51.514;-0.178;2022-12-13T03:50:48;100668.91;;;19.08;37.59
46710;BME280;32442;51.514;-0.178;2022-12-13T03:53:16;100660.00;;;19.06;37.92
46710;BME280;32442;51.514;-0.178;2022-12-13T03:55:58;100663.19;;;18.99;37.96
46710;BME280;32442;51.514;-0.178;2022-12-13T03:58:27;100648.97;;;18.96;37.42
46710;BME280;32442;51.514;-0.178;2022-12-13T04:01:04;100659.94;;;18.92;36.57
46710;BME280;32442;51.514;-0.178;2022-12-13T04:03:31;100655.47;;;18.91;36.78
46710;BME280;32442;51.514;-0.178;2022-12-13T04:05:58;100651.34;;;18.89;36.76
46710;BME280;32442;51.514;-0.178;2022-12-13T04:08:25;100649.44;;;18.84;37.17
46710;BME280;32442;51.514;-0.178;2022-12-13T04:10:52;100647.84;;;18.78;37.39
46710;BME280;32442;51.514;-0.178;2022-12-13T04:13:18;100646.25;;;18.72;37.34
46710;BME280;32442;51.514;-0.178;2022-12-13T04:15:48;100638.47;;;18.69;37.20
46710;BME280;32442;51.514;-0.178;2022-12-13T04:18:16;100638.56;;;18.64;37.54
46710;BME280;32442;51.514;-0.178;2022-12-13T04:20:43;100631.63;;;18.61;37.53
46710;BME280;32442;51.514;-0.178;2022-12-13T04:23:10;100636.16;;;18.57;37.77
46710;BME280;32442;51.514;-0.178;2022-12-13T04:25:37;100630.31;;;18.54;37.55
46710;BME280;32442;51.514;-0.178;2022-12-13T04:28:04;100628.09;;;18.51;37.59
46710;BME280;32442;51.514;-0.178;2022-12-13T04:30:31;100625.91;;;18.48;37.54
46710;BME280;32442;51.514;-0.178;2022-12-13T04:32:58;100628.16;;;18.46;38.03
46710;BME280;32442;51.514;-0.178;2022-12-13T04:35:25;100619.00;;;18.40;37.96
46710;BME280;32442;51.514;-0.178;2022-12-13T04:37:52;100613.75;;;18.39;37.93
46710;BME280;32442;51.514;-0.178;2022-12-13T04:40:19;100610.69;;;18.35;37.80
46710;BME280;32442;51.514;-0.178;2022-12-13T04:42:47;100611.03;;;18.34;37.70
46710;BME280;32442;51.514;-0.178;2022-12-13T04:45:20;100619.47;;;18.29;37.77
46710;BME280;32442;51.514;-0.178;2022-12-13T04:47:47;100625.34;;;18.27;37.91
46710;BME280;32442;51.514;-0.178;2022-12-13T04:50:14;100626.81;;;18.25;37.75
46710;BME280;32442;51.514;-0.178;2022-12-13T04:52:41;100616.75;;;18.23;37.66
46710;BME280;32442;51.514;-0.178;2022-12-13T04:55:08;100623.78;;;18.21;37.72
46710;BME280;32442;51.514;-0.178;2022-12-13T04:57:35;100617.66;;;18.19;37.95
46710;BME280;32442;51.514;-0.178;2022-12-13T05:00:02;100617.94;;;18.17;38.10
46710;BME280;32442;51.514;-0.178;2022-12-13T05:02:29;100623.03;;;18.15;37.90
46710;BME280;32442;51.514;-0.178;2022-12-13T05:04:56;100619.38;;;18.15;38.03
46710;BME280;32442;51.514;-0.178;2022-12-13T05:07:24;100624.44;;;18.13;37.70
46710;BME280;32442;51.514;-0.178;2022-12-13T05:09:51;100630.63;;;18.10;38.13
46710;BME280;32442;51.514;-0.178;2022-12-13T05:12:18;100627.63;;;18.06;38.02
46710;BME280;32442;51.514;-0.178;2022-12-13T05:14:48;100631.81;;;18.04;38.22
46710;BME280;32442;51.514;-0.178;2022-12-13T05:17:15;100629.88;;;18.04;38.18
46710;BME280;32442;51.514;-0.178;2022-12-13T05:19:42;100620.41;;;18.00;38.24
46710;BME280;32442;51.514;-0.178;2022-12-13T05:22:09;100616.78;;;18.00;38.50
46710;BME280;32442;51.514;-0.178;2022-12-13T05:24:45;100621.03;;;17.97;38.27
46710;BME280;32442;51.514;-0.178;2022-12-13T05:27:12;100623.28;;;17.95;38.46
46710;BME280;32442;51.514;-0.178;2022-12-13T05:32:32;100615.28;;;17.89;38.36
46710;BME280;32442;51.514;-0.178;2022-12-13T05:35:11;100612.25;;;17.85;38.46
46710;BME280;32442;51.514;-0.178;2022-12-13T05:37:47;100623.44;;;17.85;38.81
46710;BME280;32442;51.514;-0.178;2022-12-13T05:40:20;100618.41;;;17.82;38.70
46710;BME280;32442;51.514;-0.178;2022-12-13T05:42:47;100619.03;;;17.79;38.79
46710;BME280;32442;51.514;-0.178;2022-12-13T05:45:14;100624.91;;;17.77;38.74
46710;BME280;32442;51.514;-0.178;2022-12-13T05:47:43;100619.06;;;17.74;38.72
46710;BME280;32442;51.514;-0.178;2022-12-13T05:50:10;100622.16;;;17.72;38.81
46710;BME280;32442;51.514;-0.178;2022-12-13T05:52:37;100622.47;;;17.71;38.46
46710;BME280;32442;51.514;-0.178;2022-12-13T05:55:04;100625.84;;;17.68;38.64
46710;BME280;32442;51.514;-0.178;2022-12-13T05:57:31;100622.53;;;17.66;38.97
46710;BME280;32442;51.514;-0.178;2022-12-13T05:59:59;100630.38;;;17.64;38.62
46710;BME280;32442;51.514;-0.178;2022-12-13T06:02:27;100620.91;;;17.60;38.81
46710;BME280;32442;51.514;-0.178;2022-12-13T06:04:54;100621.19;;;17.58;39.06
46710;BME280;32442;51.514;-0.178;2022-12-13T06:07:21;100620.06;;;17.59;38.89
46710;BME280;32442;51.514;-0.178;2022-12-13T06:09:47;100623.16;;;17.58;38.86
46710;BME280;32442;51.514;-0.178;2022-12-13T06:12:14;100621.78;;;17.55;38.93
46710;BME280;32442;51.514;-0.178;2022-12-13T06:14:57;100623.50;;;17.51;39.04
46710;BME280;32442;51.514;-0.178;2022-12-13T06:19:57;100622.72;;;17.46;38.99
46710;BME280;32442;51.514;-0.178;2022-12-13T06:22:24;100614.66;;;17.44;38.86
46710;BME280;32442;51.514;-0.178;2022-12-13T06:24:51;100628.34;;;17.41;38.89
46710;BME280;32442;51.514;-0.178;2022-12-13T06:27:18;100629.50;;;17.40;38.69
46710;BME280;32442;51.514;-0.178;2022-12-13T06:29:46;100630.38;;;17.35;38.74
46710;BME280;32442;51.514;-0.178;2022-12-13T06:32:13;100631.19;;;17.35;38.95
46710;BME280;32442;51.514;-0.178;2022-12-13T06:34:40;100634.28;;;17.34;38.83
46710;BME280;32442;51.514;-0.178;2022-12-13T06:37:09;100627.63;;;17.30;39.16
46710;BME280;32442;51.514;-0.178;2022-12-13T06:39:36;100632.38;;;17.29;39.17
46710;BME280;32442;51.514;-0.178;2022-12-13T06:42:03;100636.00;;;17.30;39.02
46710;BME280;32442;51.514;-0.178;2022-12-13T06:44:32;100639.09;;;17.28;39.11
46710;BME280;32442;51.514;-0.178;2022-12-13T06:46:59;100636.91;;;17.25;39.01
46710;BME280;32442;51.514;-0.178;2022-12-13T06:49:37;100634.16;;;17.20;39.36
46710;BME280;32442;51.514;-0.178;2022-12-13T06:52:05;100638.06;;;17.19;39.08
46710;BME280;32442;51.514;-0.178;2022-12-13T06:54:34;100636.38;;;17.18;38.99
46710;BME280;32442;51.514;-0.178;2022-12-13T06:57:00;100638.66;;;17.16;38.96
46710;BME280;32442;51.514;-0.178;2022-12-13T06:59:27;100639.78;;;17.15;39.26
46710;BME280;32442;51.514;-0.178;2022-12-13T07:01:54;100646.75;;;17.13;39.09
46710;BME280;32442;51.514;-0.178;2022-12-13T07:04:29;100642.91;;;17.09;39.09
46710;BME280;32442;51.514;-0.178;2022-12-13T07:06:56;100646.28;;;17.06;39.34
46710;BME280;32442;51.514;-0.178;2022-12-13T07:09:29;100644.09;;;17.03;38.95
46710;BME280;32442;51.514;-0.178;2022-12-13T07:11:56;100648.50;;;17.04;39.40
46710;BME280;32442;51.514;-0.178;2022-12-13T07:14:23;100638.22;;;16.99;39.18
46710;BME280;32442;51.514;-0.178;2022-12-13T07:16:50;100639.38;;;16.98;39.35
46710;BME280;32442;51.514;-0.178;2022-12-13T07:19:17;100644.13;;;16.98;39.65
46710;BME280;32442;51.514;-0.178;2022-12-13T07:21:50;100641.63;;;16.96;39.43
46710;BME280;32442;51.514;-0.178;2022-12-13T07:24:17;100636.91;;;16.92;39.72
46710;BME280;32442;51.514;-0.178;2022-12-13T07:26:44;100632.44;;;16.90;39.50
46710;BME280;32442;51.514;-0.178;2022-12-13T07:29:11;100630.25;;;16.87;39.19
46710;BME280;32442;51.514;-0.178;2022-12-13T07:31:47;100642.84;;;16.85;39.60
46710;BME280;32442;51.514;-0.178;2022-12-13T07:34:14;100640.06;;;16.85;39.21
46710;BME280;32442;51.514;-0.178;2022-12-13T07:36:41;100631.38;;;16.86;39.14
46710;BME280;32442;51.514;-0.178;2022-12-13T07:39:08;100638.03;;;16.90;39.03
46710;BME280;32442;51.514;-0.178;2022-12-13T07:41:35;100646.13;;;16.92;39.62
46710;BME280;32442;51.514;-0.178;2022-12-13T07:44:02;100644.41;;;16.96;39.54
46710;BME280;32442;51.514;-0.178;2022-12-13T07:46:28;100640.75;;;17.01;39.49
46710;BME280;32442;51.514;-0.178;2022-12-13T07:49:00;100647.41;;;17.05;39.82
46710;BME280;32442;51.514;-0.178;2022-12-13T07:51:28;100643.72;;;17.09;39.70
46710;BME280;32442;51.514;-0.178;2022-12-13T07:53:56;100648.44;;;17.14;39.26
46710;BME280;32442;51.514;-0.178;2022-12-13T07:56:23;100649.00;;;17.16;39.23
46710;BME280;32442;51.514;-0.178;2022-12-13T07:58:49;100647.34;;;17.10;36.81
46710;BME280;32442;51.514;-0.178;2022-12-13T08:01:16;100650.38;;;17.13;37.48
46710;BME280;32442;51.514;-0.178;2022-12-13T08:03:46;100662.06;;;17.20;37.33
46710;BME280;32442;51.514;-0.178;2022-12-13T08:06:13;100659.22;;;17.25;37.44
46710;BME280;32442;51.514;-0.178;2022-12-13T08:08:40;100656.41;;;17.30;37.58
46710;BME280;32442;51.514;-0.178;2022-12-13T08:11:09;100665.53;;;17.36;37.55
46710;BME280;32442;51.514;-0.178;2022-12-13T08:13:37;100665.50;;;17.41;37.65
46710;BME280;32442;51.514;-0.178;2022-12-13T08:16:05;100663.47;;;17.47;37.60
46710;BME280;32442;51.514;-0.178;2022-12-13T08:18:52;100658.38;;;17.54;37.58
46710;BME280;32442;51.514;-0.178;2022-12-13T08:21:35;100658.91;;;17.61;37.54
46710;BME280;32442;51.514;-0.178;2022-12-13T08:24:21;100647.34;;;17.67;37.03
46710;BME280;32442;51.514;-0.178;2022-12-13T08:26:57;100644.22;;;17.74;37.41
46710;BME280;32442;51.514;-0.178;2022-12-13T08:29:28;100641.38;;;17.79;37.00
46710;BME280;32442;51.514;-0.178;2022-12-13T08:32:02;100642.16;;;17.85;37.21
46710;BME280;32442;51.514;-0.178;2022-12-13T08:34:30;100632.88;;;17.89;36.82
46710;BME280;32442;51.514;-0.178;2022-12-13T08:36:57;100636.97;;;17.97;36.84
46710;BME280;32442;51.514;-0.178;2022-12-13T08:39:30;100635.78;;;18.03;37.02
46710;BME280;32442;51.514;-0.178;2022-12-13T08:42:04;100637.06;;;18.10;37.04
46710;BME280;32442;51.514;-0.178;2022-12-13T08:44:44;100639.41;;;18.22;36.98
46710;BME280;32442;51.514;-0.178;2022-12-13T08:47:12;100638.00;;;18.25;37.00
46710;BME280;32442;51.514;-0.178;2022-12-13T08:49:52;100639.88;;;18.29;37.04
46710;BME280;32442;51.514;-0.178;2022-12-13T08:52:20;100626.13;;;18.33;37.11
46710;BME280;32442;51.514;-0.178;2022-12-13T08:54:47;100634.44;;;18.38;37.07
46710;BME280;32442;51.514;-0.178;2022-12-13T08:57:14;100626.28;;;18.41;37.14
46710;BME280;32442;51.514;-0.178;2022-12-13T08:59:41;100633.75;;;18.46;36.94
46710;BME280;32442;51.514;-0.178;2022-12-13T09:02:12;100618.88;;;18.50;36.94
46710;BME280;32442;51.514;-0.178;2022-12-13T09:04:39;100624.72;;;18.54;36.96
46710;BME280;32442;51.514;-0.178;2022-12-13T09:07:06;100620.19;;;18.58;36.49
46710;BME280;32442;51.514;-0.178;2022-12-13T09:09:33;100614.81;;;18.61;36.78
46710;BME280;32442;51.514;-0.178;2022-12-13T09:12:02;100626.25;;;18.65;36.48
46710;BME280;32442;51.514;-0.178;2022-12-13T09:14:36;100617.22;;;18.68;36.58
46710;BME280;32442;51.514;-0.178;2022-12-13T09:17:11;100622.22;;;18.71;36.54
46710;BME280;32442;51.514;-0.178;2022-12-13T09:19:49;100630.00;;;18.74;36.32
46710;BME280;32442;51.514;-0.178;2022-12-13T09:22:23;100628.25;;;18.78;36.06
46710;BME280;32442;51.514;-0.178;2022-12-13T09:24:59;100619.25;;;18.81;36.35
46710;BME280;32442;51.514;-0.178;2022-12-13T09:27:28;100613.91;;;18.85;36.06
46710;BME280;32442;51.514;-0.178;2022-12-13T09:30:05;100620.84;;;18.87;35.94
46710;BME280;32442;51.514;-0.178;2022-12-13T09:32:35;100613.78;;;18.90;35.94
46710;BME280;32442;51.514;-0.178;2022-12-13T09:35:03;100612.66;;;18.91;35.67
46710;BME280;32442;51.514;-0.178;2022-12-13T09:37:30;100620.47;;;18.94;35.54
46710;BME280;32442;51.514;-0.178;2022-12-13T09:39:57;100608.63;;;18.97;35.43
46710;BME280;32442;51.514;-0.178;2022-12-13T09:42:41;100610.81;;;19.00;35.79
46710;BME280;32442;51.514;-0.178;2022-12-13T09:45:11;100612.19;;;19.02;35.27
46710;BME280;32442;51.514;-0.178;2022-12-13T09:47:48;100601.19;;;19.06;35.56
46710;BME280;32442;51.514;-0.178;2022-12-13T09:50:19;100608.13;;;19.08;35.26
46710;BME280;32442;51.514;-0.178;2022-12-13T09:52:50;100612.31;;;19.11;35.16
46710;BME280;32442;51.514;-0.178;2022-12-13T09:55:26;100609.19;;;19.13;35.44
46710;BME280;32442;51.514;-0.178;2022-12-13T09:57:56;100606.63;;;19.16;35.10
46710;BME280;32442;51.514;-0.178;2022-12-13T10:00:24;100607.13;;;19.18;35.07
46710;BME280;32442;51.514;-0.178;2022-12-13T10:02:54;100607.34;;;19.22;35.24
46710;BME280;32442;51.514;-0.178;2022-12-13T10:08:05;100601.66;;;19.27;34.99
46710;BME280;32442;51.514;-0.178;2022-12-13T10:10:37;100602.19;;;19.29;34.82
46710;BME280;32442;51.514;-0.178;2022-12-13T10:13:08;100602.41;;;19.32;34.98
46710;BME280;32442;51.514;-0.178;2022-12-13T10:15:37;100593.69;;;19.34;34.99
46710;BME280;32442;51.514;-0.178;2022-12-13T10:18:07;100594.19;;;19.36;34.67
46710;BME280;32442;51.514;-0.178;2022-12-13T10:20:36;100596.41;;;19.39;34.83
46710;BME280;32442;51.514;-0.178;2022-12-13T10:23:05;100589.34;;;19.41;34.72
46710;BME280;32442;51.514;-0.178;2022-12-13T10:25:53;100589.03;;;19.43;34.17
46710;BME280;32442;51.514;-0.178;2022-12-13T10:28:30;100582.34;;;19.44;34.31
46710;BME280;32442;51.514;-0.178;2022-12-13T10:30:58;100574.72;;;19.44;34.46
46710;BME280;32442;51.514;-0.178;2022-12-13T10:33:31;100573.59;;;19.45;33.86
46710;BME280;32442;51.514;-0.178;2022-12-13T10:38:37;100562.09;;;19.47;34.05
46710;BME280;32442;51.514;-0.178;2022-12-13T10:43:41;100550.88;;;19.47;33.64
46710;BME280;32442;51.514;-0.178;2022-12-13T10:46:14;100546.09;;;19.47;33.57
46710;BME280;32442;51.514;-0.178;2022-12-13T10:48:50;100545.28;;;19.47;33.29
46710;BME280;32442;51.514;-0.178;2022-12-13T10:51:18;100543.31;;;19.47;33.39
46710;BME280;32442;51.514;-0.178;2022-12-13T10:56:17;100530.44;;;19.46;33.39
46710;BME280;32442;51.514;-0.178;2022-12-13T10:58:49;100528.47;;;19.47;33.61
46710;BME280;32442;51.514;-0.178;2022-12-13T11:03:54;100516.97;;;19.48;33.71
46710;BME280;32442;51.514;-0.178;2022-12-13T11:06:28;100514.16;;;19.48;33.81
46710;BME280;32442;51.514;-0.178;2022-12-13T11:09:13;100515.50;;;19.51;33.69
46710;BME280;32442;51.514;-0.178;2022-12-13T11:11:52;100513.22;;;19.53;34.00
46710;BME280;32442;51.514;-0.178;2022-12-13T11:14:25;100512.88;;;19.54;33.96
46710;BME280;32442;51.514;-0.178;2022-12-13T11:17:03;100507.81;;;19.57;33.57
46710;BME280;32442;51.514;-0.178;2022-12-13T11:19:34;100507.81;;;19.57;33.75
46710;BME280;32442;51.514;-0.178;2022-12-13T11:22:02;100505.22;;;19.60;33.53
46710;BME280;32442;51.514;-0.178;2022-12-13T11:24:30;100505.75;;;19.62;33.61
46710;BME280;32442;51.514;-0.178;2022-12-13T11:27:00;100504.28;;;19.65;33.66
46710;BME280;32442;51.514;-0.178;2022-12-13T11:29:35;100506.78;;;19.66;33.74
46710;BME280;32442;51.514;-0.178;2022-12-13T11:39:53;100496.47;;;19.75;33.51
46710;BME280;32442;51.514;-0.178;2022-12-13T11:47:26;100490.75;;;19.80;33.24
46710;BME280;32442;51.514;-0.178;2022-12-13T11:49:55;100485.34;;;19.84;33.47
46710;BME280;32442;51.514;-0.178;2022-12-13T11:52:33;100482.19;;;19.85;33.29
46710;BME280;32442;51.514;-0.178;2022-12-13T11:55:03;100478.78;;;19.88;33.41
46710;BME280;32442;51.514;-0.178;2022-12-13T12:02:40;100466.63;;;19.93;33.03
46710;BME280;32442;51.514;-0.178;2022-12-13T12:05:16;100463.50;;;19.94;32.78
46710;BME280;32442;51.514;-0.178;2022-12-13T12:07:48;100458.72;;;19.95;32.54
46710;BME280;32442;51.514;-0.178;2022-12-13T12:10:40;100458.72;;;19.95;32.48
46710;BME280;32442;51.514;-0.178;2022-12-13T12:18:20;100446.66;;;19.94;32.35
46710;BME280;32442;51.514;-0.178;2022-12-13T12:20:59;100448.66;;;19.94;32.12
46710;BME280;32442;51.514;-0.178;2022-12-13T12:26:16;100436.09;;;19.91;32.41
46710;BME280;32442;51.514;-0.178;2022-12-13T12:36:37;100421.69;;;19.84;31.96
46710;BME280;32442;51.514;-0.178;2022-12-13T12:52:47;100407.38;;;19.72;31.91
46710;BME280;32442;51.514;-0.178;2022-12-13T12:55:29;100400.47;;;19.70;32.00
46710;BME280;32442;51.514;-0.178;2022-12-13T13:00:27;100396.09;;;19.64;32.06
46710;BME280;32442;51.514;-0.178;2022-12-13T13:02:58;100391.16;;;19.61;31.86
46710;BME280;32442;51.514;-0.178;2022-12-13T13:05:37;100385.00;;;19.59;31.63
46710;BME280;32442;51.514;-0.178;2022-12-13T13:08:10;100386.47;;;19.56;31.98
46710;BME280;32442;51.514;-0.178;2022-12-13T13:10:38;100391.06;;;19.52;32.03
46710;BME280;32442;51.514;-0.178;2022-12-13T13:15:59;100383.41;;;19.44;31.75
46710;BME280;32442;51.514;-0.178;2022-12-13T13:22:03;100377.34;;;19.37;31.93
46710;BME280;32442;51.514;-0.178;2022-12-13T13:26:28;100366.06;;;19.28;32.29
46710;BME280;32442;51.514;-0.178;2022-12-13T13:36:53;100356.38;;;19.12;32.51
46710;BME280;32442;51.514;-0.178;2022-12-13T13:41:55;100345.56;;;19.05;32.25
46710;BME280;32442;51.514;-0.178;2022-12-13T13:49:30;100341.84;;;18.96;32.51
46710;BME280;32442;51.514;-0.178;2022-12-13T13:52:02;100336.88;;;18.93;32.52
46710;BME280;32442;51.514;-0.178;2022-12-13T14:00:20;100339.38;;;18.81;32.95
46710;BME280;32442;51.514;-0.178;2022-12-13T14:10:31;100336.28;;;18.69;33.09
46710;BME280;32442;51.514;-0.178;2022-12-13T14:13:10;100338.03;;;18.65;33.04
46710;BME280;32442;51.514;-0.178;2022-12-13T14:18:23;100332.53;;;18.60;33.08
46710;BME280;32442;51.514;-0.178;2022-12-13T14:21:08;100332.34;;;18.56;33.33
46710;BME280;32442;51.514;-0.178;2022-12-13T14:23:45;100325.69;;;18.52;33.06
46710;BME280;32442;51.514;-0.178;2022-12-13T14:26:18;100322.34;;;18.50;33.04
46710;BME280;32442;51.514;-0.178;2022-12-13T14:28:50;100321.31;;;18.46;33.38
46710;BME280;32442;51.514;-0.178;2022-12-13T14:33:50;100325.66;;;18.39;33.46
46710;BME280;32442;51.514;-0.178;2022-12-13T14:36:24;100334.34;;;18.37;33.55
46710;BME280;32442;51.514;-0.178;2022-12-13T14:38:57;100329.69;;;18.33;33.54
46710;BME280;32442;51.514;-0.178;2022-12-13T14:41:25;100334.75;;;18.31;33.42
46710;BME280;32442;51.514;-0.178;2022-12-13T14:43:52;100325.84;;;18.29;33.33
46710;BME280;32442;51.514;-0.178;2022-12-13T14:46:18;100328.13;;;18.27;33.72
46710;BME280;32442;51.514;-0.178;2022-12-13T14:48:47;100333.50;;;18.23;33.56
46710;BME280;32442;51.514;-0.178;2022-12-13T14:53:51;100337.50;;;18.17;33.41
46710;BME280;32442;51.514;-0.178;2022-12-13T14:56:18;100337.00;;;18.15;33.46
46710;BME280;32442;51.514;-0.178;2022-12-13T14:58:56;100335.69;;;18.12;33.89
46710;BME280;32442;51.514;-0.178;2022-12-13T15:01:24;100339.91;;;18.10;33.94
46710;BME280;32442;51.514;-0.178;2022-12-13T15:04:14;100333.25;;;18.06;33.59
46710;BME280;32442;51.514;-0.178;2022-12-13T15:06:41;100333.06;;;18.02;33.84
46710;BME280;32442;51.514;-0.178;2022-12-13T15:09:14;100329.22;;;17.98;34.05
46710;BME280;32442;51.514;-0.178;2022-12-13T15:11:42;100334.25;;;17.96;34.22
46710;BME280;32442;51.514;-0.178;2022-12-13T15:14:17;100338.50;;;17.94;33.95
46710;BME280;32442;51.514;-0.178;2022-12-13T15:16:47;100345.22;;;17.93;34.24
46710;BME280;32442;51.514;-0.178;2022-12-13T15:19:17;100350.00;;;17.92;34.20